sensor_id;sensor_type;location;lat;lon;timestamp;pressure;altitude;pressure_sealevel;temperature;humidity
16580;BME280;8402;51.466;6.806;2023-02-19T00:00:19;101455.84;;;11.82;100.00
16580;BME280;8402;51.466;6.806;2023-02-19T00:02:49;101453.34;;;11.86;100.00
16580;BME280;8402;51.466;6.806;2023-02-19T00:05:18;101453.03;;;11.88;100.00
16580;BME280;8402;51.466;6.806;2023-02-19T00:07:48;101448.88;;;11.90;100.00
16580;BME280;8402;51.466;6.806;2023-02-19T00:10:21;101457.34;;;11.89;100.00
16580;BME280;8402;51.466;6.806;2023-02-19T00:12:50;101458.94;;;11.90;100.00
16580;BME280;8402;51.466;6.806;2023-02-19T00:15:21;101453.50;;;11.90;100.00
16580;BME280;8402;51.466;6.806;2023-02-19T00:17:51;101454.13;;;11.87;100.00
16580;BME280;8402;51.466;6.806;2023-02-19T00:20:21;101457.94;;;11.85;100.00
16580;BME280;8402;51.466;6.806;2023-02-19T00:22:50;101448.81;;;11.81;100.00
16580;BME280;8402;51.466;6.806;2023-02-19T00:25:23;101447.69;;;11.82;100.00
16580;BME280;8402;51.466;6.806;2023-02-19T00:27:53;101451.53;;;11.81;100.00
16580;BME280;8402;51.466;6.806;2023-02-19T00:30:23;101439.09;;;11.75;100.00
16580;BME280;8402;51.466;6.806;2023-02-19T00:32:54;101441.03;;;11.75;100.00
16580;BME280;8402;51.466;6.806;2023-02-19T00:35:24;101444.06;;;11.73;100.00
16580;BME280;8402;51.466;6.806;2023-02-19T00:37:54;101435.91;;;11.73;100.00
16580;BME280;8402;51.466;6.806;2023-02-19T00:40:26;101431.56;;;11.72;100.00
16580;BME280;8402;51.466;6.806;2023-02-19T00:42:56;101435.38;;;11.71;100.00
16580;BME280;8402;51.466;6.806;2023-02-19T00:45:26;101424.09;;;11.64;100.00
16580;BME280;8402;51.466;6.806;2023-02-19T00:47:58;101424.31;;;11.68;100.00
16580;BME280;8402;51.466;6.806;2023-02-19T00:50:28;101422.50;;;11.63;100.00
16580;BME280;8402;51.466;6.806;2023-02-19T00:52:58;101424.72;;;11.61;100.00
16580;BME280;8402;51.466;6.806;2023-02-19T00:55:30;101427.94;;;11.63;100.00
16580;BME280;8402;51.466;6.806;2023-02-19T00:58:00;101429.53;;;11.64;100.00
16580;BME280;8402;51.466;6.806;2023-02-19T01:00:30;101424.09;;;11.64;100.00
16580;BME280;8402;51.466;6.806;2023-02-19T01:03:00;101420.09;;;11.62;100.00
16580;BME280;8402;51.466;6.806;2023-02-19T01:05:29;101419.28;;;11.61;100.00
16580;BME280;8402;51.466;6.806;2023-02-19T01:07:59;101425.22;;;11.63;100.00
16580;BME280;8402;51.466;6.806;2023-02-19T01:10:31;101427.13;;;11.63;100.00
16580;BME280;8402;51.466;6.806;2023-02-19T01:13:01;101427.94;;;11.63;100.00
16580;BME280;8402;51.466;6.806;2023-02-19T01:15:31;101427.94;;;11.63;100.00
16580;BME280;8402;51.466;6.806;2023-02-19T01:18:01;101430.06;;;11.66;100.00
16580;BME280;8402;51.466;6.806;2023-02-19T01:20:31;101424.09;;;11.64;100.00
16580;BME280;8402;51.466;6.806;2023-02-19T01:23:00;101415.28;;;11.58;100.00
16580;BME280;8402;51.466;6.806;2023-02-19T01:25:33;101423.94;;;11.61;100.00
16580;BME280;8402;51.466;6.806;2023-02-19T01:28:03;101423.13;;;11.60;100.00
16580;BME280;8402;51.466;6.806;2023-02-19T01:30:33;101424.53;;;11.57;100.00
16580;BME280;8402;51.466;6.806;2023-02-19T01:33:05;101411.75;;;11.58;100.00
16580;BME280;8402;51.466;6.806;2023-02-19T01:35:38;101418.41;;;11.52;100.00
16580;BME280;8402;51.466;6.806;2023-02-19T01:38:07;101427.53;;;11.56;100.00
16580;BME280;8402;51.466;6.806;2023-02-19T01:40:40;101420.50;;;11.55;100.00
16580;BME280;8402;51.466;6.806;2023-02-19T01:43:14;101417.47;;;11.56;100.00
16580;BME280;8402;51.466;6.806;2023-02-19T01:45:44;101422.63;;;11.58;100.00
16580;BME280;8402;51.466;6.806;2023-02-19T01:48:17;101424.25;;;11.59;100.00
16580;BME280;8402;51.466;6.806;2023-02-19T01:50:53;101430.25;;;11.56;100.00
16580;BME280;8402;51.466;6.806;2023-02-19T01:53:28;101423.84;;;11.52;100.00
16580;BME280;8402;51.466;6.806;2023-02-19T01:56:04;101433.09;;;11.51;100.00
16580;BME280;8402;51.466;6.806;2023-02-19T01:58:35;101429.28;;;11.52;100.00
16580;BME280;8402;51.466;6.806;2023-02-19T02:01:07;101438.03;;;11.49;100.00
16580;BME280;8402;51.466;6.806;2023-02-19T02:03:39;101436.41;;;11.48;100.00
16580;BME280;8402;51.466;6.806;2023-02-19T02:06:14;101426.16;;;11.45;100.00
16580;BME280;8402;51.466;6.806;2023-02-19T02:08:46;101421.03;;;11.43;100.00
16580;BME280;8402;51.466;6.806;2023-02-19T02:11:31;101421.31;;;11.42;100.00
16580;BME280;8402;51.466;6.806;2023-02-19T02:14:02;101433.28;;;11.41;100.00
16580;BME280;8402;51.466;6.806;2023-02-19T02:16:40;101440.84;;;11.44;100.00
16580;BME280;8402;51.466;6.806;2023-02-19T02:19:29;101438.41;;;11.42;100.00
16580;BME280;8402;51.466;6.806;2023-02-19T02:22:06;101440.72;;;11.49;100.00
16580;BME280;8402;51.466;6.806;2023-02-19T02:25:04;101432.00;;;11.52;100.00
16580;BME280;8402;51.466;6.806;2023-02-19T02:27:50;101440.03;;;11.57;100.00
16580;BME280;8402;51.466;6.806;2023-02-19T02:30:32;101427.53;;;11.56;100.00
16580;BME280;8402;51.466;6.806;2023-02-19T02:33:14;101435.91;;;11.60;100.00
16580;BME280;8402;51.466;6.806;2023-02-19T02:35:49;101436.63;;;11.65;100.00
16580;BME280;8402;51.466;6.806;2023-02-19T02:38:22;101434.88;;;11.69;100.00
16580;BME280;8402;51.466;6.806;2023-02-19T02:40:54;101425.34;;;11.72;100.00
16580;BME280;8402;51.466;6.806;2023-02-19T02:43:24;101431.56;;;11.72;100.00
16580;BME280;8402;51.466;6.806;2023-02-19T02:45:57;101435.28;;;11.76;100.00
16580;BME280;8402;51.466;6.806;2023-02-19T02:48:32;101428.06;;;11.72;100.00
16580;BME280;8402;51.466;6.806;2023-02-19T02:51:10;101434.16;;;11.77;100.00
16580;BME280;8402;51.466;6.806;2023-02-19T02:53:46;101433.03;;;11.78;100.00
16580;BME280;8402;51.466;6.806;2023-02-19T02:56:30;101434.16;;;11.77;100.00
16580;BME280;8402;51.466;6.806;2023-02-19T02:59:01;101431.38;;;11.82;100.00
16580;BME280;8402;51.466;6.806;2023-02-19T03:01:39;101432.97;;;11.83;100.00
16580;BME280;8402;51.466;6.806;2023-02-19T03:04:27;101438.41;;;11.83;100.00
16580;BME280;8402;51.466;6.806;2023-02-19T03:07:04;101445.47;;;11.84;100.00
16580;BME280;8402;51.466;6.806;2023-02-19T03:09:39;101444.66;;;11.84;100.00
16580;BME280;8402;51.466;6.806;2023-02-19T03:12:13;101440.22;;;11.88;100.00
16580;BME280;8402;51.466;6.806;2023-02-19T03:15:00;101444.88;;;11.88;100.00
16580;BME280;8402;51.466;6.806;2023-02-19T03:17:48;101456.84;;;11.87;100.00
16580;BME280;8402;51.466;6.806;2023-02-19T03:20:33;101464.00;;;11.82;100.00
16580;BME280;8402;51.466;6.806;2023-02-19T03:23:05;101465.91;;;11.68;100.00
16580;BME280;8402;51.466;6.806;2023-02-19T03:25:38;101468.63;;;11.68;100.00
16580;BME280;8402;51.466;6.806;2023-02-19T03:28:23;101466.00;;;11.63;100.00
16580;BME280;8402;51.466;6.806;2023-02-19T03:31:16;101474.78;;;11.60;100.00
16580;BME280;8402;51.466;6.806;2023-02-19T03:33:55;101476.06;;;11.49;100.00
16580;BME280;8402;51.466;6.806;2023-02-19T03:36:31;101473.06;;;11.50;100.00
16580;BME280;8402;51.466;6.806;2023-02-19T03:39:04;101474.16;;;11.49;100.00
16580;BME280;8402;51.466;6.806;2023-02-19T03:41:41;101478.28;;;11.47;100.00
16580;BME280;8402;51.466;6.806;2023-02-19T03:44:16;101475.78;;;11.50;100.00
16580;BME280;8402;51.466;6.806;2023-02-19T03:46:53;101486.94;;;11.49;100.00
16580;BME280;8402;51.466;6.806;2023-02-19T03:49:36;101486.94;;;11.49;100.00
16580;BME280;8402;51.466;6.806;2023-02-19T03:52:15;101490.75;;;11.48;100.00
16580;BME280;8402;51.466;6.806;2023-02-19T03:54:51;101493.78;;;11.46;100.00
16580;BME280;8402;51.466;6.806;2023-02-19T03:57:29;101488.13;;;11.43;100.00
16580;BME280;8402;51.466;6.806;2023-02-19T04:00:07;101505.56;;;11.42;100.00
16580;BME280;8402;51.466;6.806;2023-02-19T04:02:41;101515.31;;;11.43;100.00
16580;BME280;8402;51.466;6.806;2023-02-19T04:05:18;101496.19;;;11.34;100.00
16580;BME280;8402;51.466;6.806;2023-02-19T04:07:52;101497.00;;;11.35;100.00
16580;BME280;8402;51.466;6.806;2023-02-19T04:10:24;101513.22;;;11.40;100.00
16580;BME280;8402;51.466;6.806;2023-02-19T04:12:57;101512.09;;;11.41;100.00
16580;BME280;8402;51.466;6.806;2023-02-19T04:15:31;101523.78;;;11.41;100.00
16580;BME280;8402;51.466;6.806;2023-02-19T04:18:05;101528.91;;;11.43;100.00
16580;BME280;8402;51.466;6.806;2023-02-19T04:20:41;101522.25;;;11.35;100.00
16580;BME280;8402;51.466;6.806;2023-02-19T04:23:14;101530.63;;;11.39;100.00
16580;BME280;8402;51.466;6.806;2023-02-19T04:25:47;101538.28;;;11.37;100.00
16580;BME280;8402;51.466;6.806;2023-02-19T04:28:18;101538.34;;;11.32;100.00
16580;BME280;8402;51.466;6.806;2023-02-19T04:30:48;101545.91;;;11.35;100.00
16580;BME280;8402;51.466;6.806;2023-02-19T04:33:18;101545.47;;;11.27;100.00
16580;BME280;8402;51.466;6.806;2023-02-19T04:35:51;101543.69;;;11.23;100.00
16580;BME280;8402;51.466;6.806;2023-02-19T04:38:21;101550.72;;;11.24;100.00
16580;BME280;8402;51.466;6.806;2023-02-19T04:40:51;101555.03;;;11.25;100.00
16580;BME280;8402;51.466;6.806;2023-02-19T04:43:20;101547.09;;;11.28;100.00
16580;BME280;8402;51.466;6.806;2023-02-19T04:45:50;101550.91;;;11.27;100.00
16580;BME280;8402;51.466;6.806;2023-02-19T04:48:20;101564.31;;;11.24;100.00
16580;BME280;8402;51.466;6.806;2023-02-19T04:50:53;101556.34;;;11.27;100.00
16580;BME280;8402;51.466;6.806;2023-02-19T04:53:23;101564.59;;;11.22;100.00
16580;BME280;8402;51.466;6.806;2023-02-19T04:55:53;101563.50;;;11.23;100.00
16580;BME280;8402;51.466;6.806;2023-02-19T04:58:22;101567.81;;;11.24;100.00
16580;BME280;8402;51.466;6.806;2023-02-19T05:00:52;101564.59;;;11.22;100.00
16580;BME280;8402;51.466;6.806;2023-02-19T05:03:22;101562.03;;;11.12;100.00
16580;BME280;8402;51.466;6.806;2023-02-19T05:05:55;101571.44;;;11.20;100.00
16580;BME280;8402;51.466;6.806;2023-02-19T05:08:25;101569.81;;;11.19;100.00
16580;BME280;8402;51.466;6.806;2023-02-19T05:10:56;101582.28;;;11.20;100.00
16580;BME280;8402;51.466;6.806;2023-02-19T05:13:27;101589.94;;;11.18;100.00
16580;BME280;8402;51.466;6.806;2023-02-19T05:15:58;101592.84;;;11.21;100.00
16580;BME280;8402;51.466;6.806;2023-02-19T05:18:29;101595.75;;;11.11;100.00
16580;BME280;8402;51.466;6.806;2023-02-19T05:21:03;101594.56;;;11.17;100.00
16580;BME280;8402;51.466;6.806;2023-02-19T05:23:33;101591.53;;;11.19;100.00
16580;BME280;8402;51.466;6.806;2023-02-19T05:26:06;101599.94;;;11.22;100.00
16580;BME280;8402;51.466;6.806;2023-02-19T05:28:36;101600.44;;;11.24;100.00
16580;BME280;8402;51.466;6.806;2023-02-19T05:31:07;101606.88;;;11.28;100.00
16580;BME280;8402;51.466;6.806;2023-02-19T05:33:38;101614.75;;;11.30;100.00
16580;BME280;8402;51.466;6.806;2023-02-19T05:36:12;101606.28;;;11.32;100.00
16580;BME280;8402;51.466;6.806;2023-02-19T05:38:42;101614.00;;;11.24;100.00
16580;BME280;8402;51.466;6.806;2023-02-19T05:41:14;101619.63;;;11.28;100.00
16580;BME280;8402;51.466;6.806;2023-02-19T05:43:46;101624.81;;;11.29;100.00
16580;BME280;8402;51.466;6.806;2023-02-19T05:46:18;101627.22;;;11.31;100.00
16580;BME280;8402;51.466;6.806;2023-02-19T05:48:50;101626.09;;;11.32;100.00
16580;BME280;8402;51.466;6.806;2023-02-19T05:51:24;101622.34;;;11.28;100.00
16580;BME280;8402;51.466;6.806;2023-02-19T05:53:55;101625.38;;;11.26;100.00
16580;BME280;8402;51.466;6.806;2023-02-19T05:56:31;101625.88;;;11.28;100.00
16580;BME280;8402;51.466;6.806;2023-02-19T05:59:04;101625.81;;;11.34;100.00
16580;BME280;8402;51.466;6.806;2023-02-19T06:01:35;101633.44;;;11.32;100.00
16580;BME280;8402;51.466;6.806;2023-02-19T06:04:05;101635.06;;;11.33;100.00
16580;BME280;8402;51.466;6.806;2023-02-19T06:06:38;101633.66;;;11.35;100.00
16580;BME280;8402;51.466;6.806;2023-02-19T06:09:09;101632.03;;;11.34;100.00
16580;BME280;8402;51.466;6.806;2023-02-19T06:11:39;101631.25;;;11.34;100.00
16580;BME280;8402;51.466;6.806;2023-02-19T06:14:11;101635.06;;;11.33;100.00
16580;BME280;8402;51.466;6.806;2023-02-19T06:16:41;101636.16;;;11.32;100.00
16580;BME280;8402;51.466;6.806;2023-02-19T06:19:11;101646.00;;;11.27;100.00
16580;BME280;8402;51.466;6.806;2023-02-19T06:21:44;101639.44;;;11.15;100.00
16580;BME280;8402;51.466;6.806;2023-02-19T06:24:14;101652.19;;;11.14;100.00
16580;BME280;8402;51.466;6.806;2023-02-19T06:26:44;101652.28;;;11.09;100.00
16580;BME280;8402;51.466;6.806;2023-02-19T06:29:15;101660.50;;;11.04;100.00
16580;BME280;8402;51.466;6.806;2023-02-19T06:31:45;101667.47;;;11.10;100.00
16580;BME280;8402;51.466;6.806;2023-02-19T06:34:15;101666.66;;;11.10;100.00
16580;BME280;8402;51.466;6.806;2023-02-19T06:36:48;101656.19;;;11.03;100.00
16580;BME280;8402;51.466;6.806;2023-02-19T06:39:18;101670.84;;;11.02;100.00
16580;BME280;8402;51.466;6.806;2023-02-19T06:41:48;101677.59;;;11.05;100.00
16580;BME280;8402;51.466;6.806;2023-02-19T06:44:18;101683.09;;;10.99;100.00
16580;BME280;8402;51.466;6.806;2023-02-19T06:46:48;101681.19;;;11.00;100.00
16580;BME280;8402;51.466;6.806;2023-02-19T06:49:18;101688.31;;;10.96;100.00
16580;BME280;8402;51.466;6.806;2023-02-19T06:51:51;101688.81;;;10.98;100.00
16580;BME280;8402;51.466;6.806;2023-02-19T06:54:20;101700.28;;;10.95;100.00
16580;BME280;8402;51.466;6.806;2023-02-19T06:56:51;101700.28;;;10.95;100.00
16580;BME280;8402;51.466;6.806;2023-02-19T06:59:25;101703.06;;;10.90;100.00
16580;BME280;8402;51.466;6.806;2023-02-19T07:01:55;101724.78;;;10.90;100.00
16580;BME280;8402;51.466;6.806;2023-02-19T07:04:25;101727.22;;;10.91;100.00
16580;BME280;8402;51.466;6.806;2023-02-19T07:06:57;101717.75;;;10.89;100.00
16580;BME280;8402;51.466;6.806;2023-02-19T07:09:28;101731.03;;;10.90;100.00
16580;BME280;8402;51.466;6.806;2023-02-19T07:11:58;101734.03;;;10.89;100.00
16580;BME280;8402;51.466;6.806;2023-02-19T07:14:28;101736.25;;;10.87;100.00
16580;BME280;8402;51.466;6.806;2023-02-19T07:16:58;101740.56;;;10.88;100.00
16580;BME280;8402;51.466;6.806;2023-02-19T07:19:28;101740.56;;;10.88;100.00
16580;BME280;8402;51.466;6.806;2023-02-19T07:22:00;101747.09;;;10.87;100.00
16580;BME280;8402;51.466;6.806;2023-02-19T07:24:30;101755.75;;;10.89;100.00
16580;BME280;8402;51.466;6.806;2023-02-19T07:27:00;101757.88;;;10.92;100.00
16580;BME280;8402;51.466;6.806;2023-02-19T07:29:30;101760.59;;;10.92;100.00
16580;BME280;8402;51.466;6.806;2023-02-19T07:32:00;101771.47;;;10.92;100.00
16580;BME280;8402;51.466;6.806;2023-02-19T07:34:30;101780.16;;;10.94;100.00
16580;BME280;8402;51.466;6.806;2023-02-19T07:37:02;101776.50;;;10.80;100.00
16580;BME280;8402;51.466;6.806;2023-02-19T07:39:33;101775.88;;;10.88;100.00
16580;BME280;8402;51.466;6.806;2023-02-19T07:42:03;101785.94;;;10.87;100.00
16580;BME280;8402;51.466;6.806;2023-02-19T07:44:33;101788.03;;;10.90;100.00
16580;BME280;8402;51.466;6.806;2023-02-19T07:47:03;101797.00;;;10.91;100.00
16580;BME280;8402;51.466;6.806;2023-02-19T07:49:33;101793.19;;;10.92;100.00
16580;BME280;8402;51.466;6.806;2023-02-19T07:52:05;101796.50;;;10.89;100.00
16580;BME280;8402;51.466;6.806;2023-02-19T07:54:35;101800.81;;;10.90;100.00
16580;BME280;8402;51.466;6.806;2023-02-19T07:57:05;101798.63;;;10.92;100.00
16580;BME280;8402;51.466;6.806;2023-02-19T07:59:35;101807.84;;;10.91;100.00
16580;BME280;8402;51.466;6.806;2023-02-19T08:02:10;101813.88;;;10.88;100.00
16580;BME280;8402;51.466;6.806;2023-02-19T08:04:54;101805.44;;;10.89;100.00
16580;BME280;8402;51.466;6.806;2023-02-19T08:07:30;101826.34;;;10.89;100.00
16580;BME280;8402;51.466;6.806;2023-02-19T08:10:00;101827.97;;;10.90;100.00
16580;BME280;8402;51.466;6.806;2023-02-19T08:12:42;101835.00;;;10.91;100.00
16580;BME280;8402;51.466;6.806;2023-02-19T08:15:25;101825.75;;;10.92;100.00
16580;BME280;8402;51.466;6.806;2023-02-19T08:17:54;101823.84;;;10.92;100.00
16580;BME280;8402;51.466;6.806;2023-02-19T08:20:24;101826.88;;;10.91;100.00
16580;BME280;8402;51.466;6.806;2023-02-19T08:22:57;101833.91;;;10.92;100.00
16580;BME280;8402;51.466;6.806;2023-02-19T08:25:27;101835.25;;;10.94;100.00
16580;BME280;8402;51.466;6.806;2023-02-19T08:27:57;101847.72;;;10.95;100.00
16580;BME280;8402;51.466;6.806;2023-02-19T08:30:28;101839.06;;;10.93;100.00
16580;BME280;8402;51.466;6.806;2023-02-19T08:33:00;101840.91;;;10.98;100.00
16580;BME280;8402;51.466;6.806;2023-02-19T08:35:30;101840.34;;;11.01;100.00
16580;BME280;8402;51.466;6.806;2023-02-19T08:38:05;101834.31;;;11.04;100.00
16580;BME280;8402;51.466;6.806;2023-02-19T08:40:36;101838.00;;;11.13;100.00
16580;BME280;8402;51.466;6.806;2023-02-19T08:43:08;101836.84;;;11.19;100.00
16580;BME280;8402;51.466;6.806;2023-02-19T08:45:39;101843.31;;;11.23;100.00
16580;BME280;8402;51.466;6.806;2023-02-19T08:48:10;101848.75;;;11.23;100.00
16580;BME280;8402;51.466;6.806;2023-02-19T08:50:40;101850.66;;;11.23;100.00
16580;BME280;8402;51.466;6.806;2023-02-19T08:53:13;101849.50;;;11.29;100.00
16580;BME280;8402;51.466;6.806;2023-02-19T08:55:43;101852.38;;;11.38;100.00
16580;BME280;8402;51.466;6.806;2023-02-19T08:58:13;101853.19;;;11.38;100.00
16580;BME280;8402;51.466;6.806;2023-02-19T09:00:43;101850.91;;;11.45;100.00
16580;BME280;8402;51.466;6.806;2023-02-19T09:03:13;101856.50;;;11.54;100.00
16580;BME280;8402;51.466;6.806;2023-02-19T09:05:43;101859.44;;;11.57;100.00
16580;BME280;8402;51.466;6.806;2023-02-19T09:08:15;101864.50;;;11.64;100.00
16580;BME280;8402;51.466;6.806;2023-02-19T09:10:56;101882.44;;;11.65;100.00
16580;BME280;8402;51.466;6.806;2023-02-19T09:13:26;101881.84;;;11.68;100.00
16580;BME280;8402;51.466;6.806;2023-02-19T09:15:56;101887.78;;;11.70;100.00
16580;BME280;8402;51.466;6.806;2023-02-19T09:18:26;101897.81;;;11.75;100.00
16580;BME280;8402;51.466;6.806;2023-02-19T09:20:58;101891.84;;;11.73;100.00
16580;BME280;8402;51.466;6.806;2023-02-19T09:23:34;101895.94;;;11.70;100.00
16580;BME280;8402;51.466;6.806;2023-02-19T09:26:05;101896.56;;;11.67;100.00
16580;BME280;8402;51.466;6.806;2023-02-19T09:28:37;101906.38;;;11.63;100.00
16580;BME280;8402;51.466;6.806;2023-02-19T09:31:11;101909.53;;;11.51;100.00
16580;BME280;8402;51.466;6.806;2023-02-19T09:33:42;101911.38;;;11.56;100.00
16580;BME280;8402;51.466;6.806;2023-02-19T09:36:13;101899.47;;;11.52;100.00
16580;BME280;8402;51.466;6.806;2023-02-19T09:38:47;101902.09;;;11.57;100.00
16580;BME280;8402;51.466;6.806;2023-02-19T09:41:21;101912.97;;;11.57;100.00
16580;BME280;8402;51.466;6.806;2023-02-19T09:43:52;101912.19;;;11.56;100.00
16580;BME280;8402;51.466;6.806;2023-02-19T09:46:47;101909.53;;;11.51;100.00
16580;BME280;8402;51.466;6.806;2023-02-19T09:51:59;101927.13;;;11.59;100.00
16580;BME280;8402;51.466;6.806;2023-02-19T09:54:35;101927.63;;;11.61;100.00
16580;BME280;8402;51.466;6.806;2023-02-19T09:57:10;101931.38;;;11.65;100.00
16580;BME280;8402;51.466;6.806;2023-02-19T09:59:45;101944.09;;;11.70;100.00
16580;BME280;8402;51.466;6.806;2023-02-19T10:02:23;101945.50;;;11.67;100.00
16580;BME280;8402;51.466;6.806;2023-02-19T10:04:56;101950.94;;;11.67;100.00
16580;BME280;8402;51.466;6.806;2023-02-19T10:07:35;101959.94;;;11.63;100.00
16580;BME280;8402;51.466;6.806;2023-02-19T10:10:29;101978.22;;;11.57;100.00
16580;BME280;8402;51.466;6.806;2023-02-19T10:13:17;101986.91;;;11.59;100.00
16580;BME280;8402;51.466;6.806;2023-02-19T10:15:50;101989.56;;;11.64;100.00
16580;BME280;8402;51.466;6.806;2023-02-19T10:18:22;101986.28;;;11.67;100.00
16580;BME280;8402;51.466;6.806;2023-02-19T10:20:55;101983.56;;;11.67;100.00
16580;BME280;8402;51.466;6.806;2023-02-19T10:23:25;101988.19;;;11.67;100.00
16580;BME280;8402;51.466;6.806;2023-02-19T10:25:58;101998.25;;;11.66;100.00
16580;BME280;8402;51.466;6.806;2023-02-19T10:28:30;102000.88;;;11.71;100.00
16580;BME280;8402;51.466;6.806;2023-02-19T10:31:04;102011.16;;;11.79;100.00
16580;BME280;8402;51.466;6.806;2023-02-19T10:33:47;102011.63;;;11.87;100.00
16580;BME280;8402;51.466;6.806;2023-02-19T10:36:24;102011.53;;;11.92;100.00
16580;BME280;8402;51.466;6.806;2023-02-19T10:38:58;102008.63;;;12.07;100.00
16580;BME280;8402;51.466;6.806;2023-02-19T10:41:31;102012.88;;;12.13;100.00
16580;BME280;8402;51.466;6.806;2023-02-19T10:44:05;102014.13;;;12.21;100.00
16580;BME280;8402;51.466;6.806;2023-02-19T10:46:40;102018.34;;;12.13;100.00
16580;BME280;8402;51.466;6.806;2023-02-19T10:49:20;102018.56;;;12.17;100.00
16580;BME280;8402;51.466;6.806;2023-02-19T10:51:54;102017.66;;;12.21;100.00
16580;BME280;8402;51.466;6.806;2023-02-19T10:54:27;102021.00;;;12.18;100.00
16580;BME280;8402;51.466;6.806;2023-02-19T10:57:19;102028.75;;;12.06;100.00
16580;BME280;8402;51.466;6.806;2023-02-19T10:59:57;102038.78;;;12.10;100.00
16580;BME280;8402;51.466;6.806;2023-02-19T11:02:29;102035.38;;;12.00;100.00
16580;BME280;8402;51.466;6.806;2023-02-19T11:05:15;102045.69;;;12.03;100.00
16580;BME280;8402;51.466;6.806;2023-02-19T11:07:47;102046.69;;;12.07;100.00
16580;BME280;8402;51.466;6.806;2023-02-19T11:10:22;102046.88;;;12.16;100.00
16580;BME280;8402;51.466;6.806;2023-02-19T11:12:58;102043.34;;;12.15;100.00
16580;BME280;8402;51.466;6.806;2023-02-19T11:15:31;102034.66;;;12.13;100.00
16580;BME280;8402;51.466;6.806;2023-02-19T11:18:06;102043.97;;;12.07;100.00
16580;BME280;8402;51.466;6.806;2023-02-19T11:20:38;102036.00;;;12.16;100.00
16580;BME280;8402;51.466;6.806;2023-02-19T11:23:17;102057.97;;;12.19;100.00
16580;BME280;8402;51.466;6.806;2023-02-19T11:25:49;102047.25;;;12.28;100.00
16580;BME280;8402;51.466;6.806;2023-02-19T11:28:31;102040.06;;;12.37;100.00
16580;BME280;8402;51.466;6.806;2023-02-19T11:31:20;102023.94;;;12.40;100.00
16580;BME280;8402;51.466;6.806;2023-02-19T11:33:56;102043.94;;;12.50;100.00
16580;BME280;8402;51.466;6.806;2023-02-19T11:36:31;102035.84;;;12.45;100.00
16580;BME280;8402;51.466;6.806;2023-02-19T11:39:19;102033.66;;;12.47;100.00
16580;BME280;8402;51.466;6.806;2023-02-19T11:42:04;102029.75;;;12.53;100.00
16580;BME280;8402;51.466;6.806;2023-02-19T11:44:51;102027.22;;;12.56;100.00
16580;BME280;8402;51.466;6.806;2023-02-19T11:47:48;102027.16;;;12.61;100.00
16580;BME280;8402;51.466;6.806;2023-02-19T11:50:26;102024.66;;;12.65;100.00
16580;BME280;8402;51.466;6.806;2023-02-19T11:53:09;102036.13;;;12.62;100.00
16580;BME280;8402;51.466;6.806;2023-02-19T11:55:52;102021.41;;;12.63;100.00
16580;BME280;8402;51.466;6.806;2023-02-19T11:58:47;102026.84;;;12.63;100.00
16580;BME280;8402;51.466;6.806;2023-02-19T12:01:37;102023.03;;;12.64;100.00
16580;BME280;8402;51.466;6.806;2023-02-19T12:04:25;102030.13;;;12.65;100.00
16580;BME280;8402;51.466;6.806;2023-02-19T12:07:10;102029.50;;;12.68;100.00
16580;BME280;8402;51.466;6.806;2023-02-19T12:09:54;102027.97;;;12.62;100.00
16580;BME280;8402;51.466;6.806;2023-02-19T12:12:43;102049.25;;;12.60;100.00
16580;BME280;8402;51.466;6.806;2023-02-19T12:15:39;102046.00;;;12.58;100.00
16580;BME280;8402;51.466;6.806;2023-02-19T12:21:26;102062.28;;;12.44;100.00
16580;BME280;8402;51.466;6.806;2023-02-19T12:24:11;102073.06;;;12.30;100.00
16580;BME280;8402;51.466;6.806;2023-02-19T12:26:54;102054.59;;;12.27;100.00
16580;BME280;8402;51.466;6.806;2023-02-19T12:29:40;102054.91;;;12.26;100.00
16580;BME280;8402;51.466;6.806;2023-02-19T12:32:33;102065.28;;;12.24;100.00
16580;BME280;8402;51.466;6.806;2023-02-19T12:35:25;102072.19;;;12.16;100.00
16580;BME280;8402;51.466;6.806;2023-02-19T12:38:04;102053.50;;;12.28;100.00
16580;BME280;8402;51.466;6.806;2023-02-19T12:40:45;102059.47;;;12.30;100.00
16580;BME280;8402;51.466;6.806;2023-02-19T12:43:20;102049.69;;;12.29;100.00
16580;BME280;8402;51.466;6.806;2023-02-19T12:45:53;102058.56;;;12.35;100.00
16580;BME280;8402;51.466;6.806;2023-02-19T12:48:29;102062.63;;;12.37;100.00
16580;BME280;8402;51.466;6.806;2023-02-19T12:51:06;102056.97;;;12.34;100.00
16580;BME280;8402;51.466;6.806;2023-02-19T12:53:43;102065.41;;;12.32;100.00
16580;BME280;8402;51.466;6.806;2023-02-19T12:56:19;102068.22;;;12.27;100.00
16580;BME280;8402;51.466;6.806;2023-02-19T12:58:52;102063.22;;;12.34;100.00
16580;BME280;8402;51.466;6.806;2023-02-19T13:01:27;102063.81;;;12.31;100.00
16580;BME280;8402;51.466;6.806;2023-02-19T13:04:17;102076.31;;;12.32;100.00
16580;BME280;8402;51.466;6.806;2023-02-19T13:06:56;102074.75;;;12.26;100.00
16580;BME280;8402;51.466;6.806;2023-02-19T13:09:34;102083.97;;;12.30;100.00
16580;BME280;8402;51.466;6.806;2023-02-19T13:12:08;102083.97;;;12.30;100.00
16580;BME280;8402;51.466;6.806;2023-02-19T13:14:42;102072.84;;;12.27;100.00
16580;BME280;8402;51.466;6.806;2023-02-19T13:17:21;102081.31;;;12.25;100.00
16580;BME280;8402;51.466;6.806;2023-02-19T13:19:57;102069.38;;;12.21;100.00
16580;BME280;8402;51.466;6.806;2023-02-19T13:22:36;102068.34;;;12.17;100.00
16580;BME280;8402;51.466;6.806;2023-02-19T13:25:21;102073.19;;;12.20;100.00
16580;BME280;8402;51.466;6.806;2023-02-19T13:28:05;102079.81;;;12.14;100.00
16580;BME280;8402;51.466;6.806;2023-02-19T13:30:59;102088.50;;;12.16;100.00
16580;BME280;8402;51.466;6.806;2023-02-19T13:33:38;102088.50;;;12.16;100.00